createdAt,value
2019-04-26T00:01:11.638Z,14.90
2019-04-26T00:03:50.378Z,14.90
2019-04-26T00:06:19.469Z,14.80
2019-04-26T00:08:49.707Z,14.80
2019-04-26T00:11:20.309Z,14.70
2019-04-26T00:14:05.452Z,14.70
2019-04-26T00:16:47.623Z,14.60
2019-04-26T00:19:16.163Z,14.60
2019-04-26T00:21:45.087Z,14.50
2019-04-26T00:24:13.915Z,14.50
2019-04-26T00:26:42.638Z,14.50
2019-04-26T00:29:11.364Z,14.50
2019-04-26T00:31:39.925Z,14.40
2019-04-26T00:34:08.378Z,14.40
2019-04-26T00:36:36.835Z,14.30
2019-04-26T00:39:06.737Z,14.30
2019-04-26T00:41:36.123Z,14.30
2019-04-26T00:44:04.839Z,14.20
2019-04-26T00:46:36.483Z,14.20
2019-04-26T00:49:07.067Z,14.10
2019-04-26T00:51:36.133Z,14.10
2019-04-26T00:54:05.330Z,14.10
2019-04-26T00:56:34.931Z,14.10
2019-04-26T00:59:04.519Z,14.00
2019-04-26T01:01:34.707Z,14.10
2019-04-26T01:04:03.235Z,14.00
2019-04-26T01:06:33.400Z,13.90
2019-04-26T01:09:01.866Z,13.90
2019-04-26T01:11:30.323Z,13.90
2019-04-26T01:13:58.775Z,13.90
2019-04-26T01:16:27.239Z,13.90
2019-04-26T01:18:57.131Z,13.80
2019-04-26T01:21:28.675Z,13.80
2019-04-26T01:24:00.556Z,13.70
2019-04-26T01:26:32.107Z,13.70
2019-04-26T01:29:03.653Z,13.70
2019-04-26T01:31:35.215Z,13.60
2019-04-26T01:34:03.738Z,13.50
2019-04-26T01:36:33.935Z,13.50
2019-04-26T01:39:07.124Z,13.50
2019-04-26T01:41:55.530Z,13.40
2019-04-26T01:44:43.530Z,13.40
2019-04-26T01:47:12.716Z,13.30
2019-04-26T01:49:41.440Z,13.40
2019-04-26T01:52:14.874Z,13.30
2019-04-26T01:54:44.982Z,13.30
2019-04-26T01:57:15.018Z,13.20
2019-04-26T01:59:51.000Z,13.10
2019-04-26T02:02:21.278Z,13.00
2019-04-26T02:04:53.785Z,13.00
2019-04-26T02:07:30.411Z,13.00
2019-04-26T02:09:58.975Z,12.90
2019-04-26T02:12:27.508Z,12.90
2019-04-26T02:14:56.096Z,12.80
2019-04-26T02:17:25.363Z,12.80
2019-04-26T02:19:55.449Z,12.80
2019-04-26T02:22:28.526Z,12.70
2019-04-26T02:24:57.060Z,12.70
2019-04-26T02:27:28.306Z,12.60
2019-04-26T02:29:57.077Z,12.60
2019-04-26T02:32:27.210Z,12.60
2019-04-26T02:34:56.755Z,12.50
2019-04-26T02:37:27.042Z,12.50
2019-04-26T02:39:56.022Z,12.50
2019-04-26T02:42:39.314Z,12.50
2019-04-26T02:45:18.416Z,12.40
2019-04-26T02:47:50.945Z,12.40
2019-04-26T02:50:22.290Z,12.30
2019-04-26T02:52:59.651Z,12.30
2019-04-26T02:56:03.182Z,12.30
2019-04-26T02:58:35.981Z,12.30
2019-04-26T03:01:05.001Z,12.30
2019-04-26T03:03:35.370Z,12.30
2019-04-26T03:06:04.052Z,12.20
2019-04-26T03:08:37.147Z,12.20
2019-04-26T03:11:08.984Z,12.20
2019-04-26T03:13:45.012Z,12.20
2019-04-26T03:16:32.652Z,12.10
2019-04-26T03:19:07.702Z,12.10
2019-04-26T03:21:47.916Z,12.00
2019-04-26T03:24:36.410Z,12.00
2019-04-26T03:27:16.834Z,12.00
2019-04-26T03:30:17.615Z,12.00
2019-04-26T03:32:55.349Z,11.90
2019-04-26T03:35:54.533Z,11.90
2019-04-26T03:38:21.223Z,11.90
2019-04-26T03:41:09.458Z,11.80
2019-04-26T03:43:42.750Z,11.80
2019-04-26T03:46:38.987Z,11.70
2019-04-26T03:49:29.818Z,11.60
2019-04-26T03:52:18.727Z,11.60
2019-04-26T03:54:52.916Z,11.60
2019-04-26T03:57:59.310Z,11.60
2019-04-26T04:00:37.194Z,11.60
2019-04-26T04:03:20.173Z,11.60
2019-04-26T04:05:53.396Z,11.60
2019-04-26T04:08:24.933Z,11.50
2019-04-26T04:10:59.278Z,11.50
2019-04-26T04:13:50.811Z,11.60
2019-04-26T04:16:41.389Z,11.60
2019-04-26T04:19:38.953Z,11.60
2019-04-26T04:22:13.326Z,11.60
2019-04-26T04:24:45.603Z,11.60
2019-04-26T04:27:36.249Z,11.60
2019-04-26T04:30:10.924Z,11.60
2019-04-26T04:32:49.687Z,11.50
2019-04-26T04:35:21.336Z,11.60
2019-04-26T04:38:09.607Z,11.60
2019-04-26T04:40:49.078Z,11.60
2019-04-26T04:43:28.131Z,11.60
2019-04-26T04:46:10.773Z,11.60
2019-04-26T04:49:09.871Z,11.60
2019-04-26T04:52:06.950Z,11.60
2019-04-26T04:54:45.004Z,11.70
2019-04-26T04:57:23.250Z,11.70
2019-04-26T05:00:08.769Z,11.70
2019-04-26T05:02:44.954Z,11.70
2019-04-26T05:05:20.799Z,11.90
2019-04-26T05:07:52.335Z,11.90
2019-04-26T05:10:47.865Z,12.00
2019-04-26T05:13:22.227Z,12.20
2019-04-26T05:16:09.580Z,14.20
2019-04-26T05:19:29.271Z,15.60
2019-04-26T05:22:09.404Z,15.60
2019-04-26T05:25:17.413Z,16.00
2019-04-26T05:27:57.174Z,16.40
2019-04-26T05:30:46.484Z,17.60
2019-04-26T05:33:24.248Z,18.10
2019-04-26T05:36:09.463Z,18.10
2019-04-26T05:38:41.023Z,18.30
2019-04-26T05:41:48.513Z,18.60
2019-04-26T05:44:34.365Z,19.40
2019-04-26T05:47:36.420Z,19.50
2019-04-26T05:50:32.101Z,20.60
2019-04-26T05:53:10.854Z,20.10
2019-04-26T05:56:17.589Z,20.30
2019-04-26T05:59:05.498Z,19.80
2019-04-26T06:01:47.736Z,20.40
2019-04-26T06:04:26.310Z,21.20
2019-04-26T06:07:20.568Z,20.90
2019-04-26T06:10:28.266Z,21.20
2019-04-26T06:13:19.458Z,21.40
2019-04-26T06:16:16.294Z,20.50
2019-04-26T06:19:07.438Z,21.00
2019-04-26T06:21:58.434Z,20.90
2019-04-26T06:24:30.061Z,20.50
2019-04-26T06:27:13.591Z,21.50
2019-04-26T06:29:45.296Z,21.10
2019-04-26T06:33:00.690Z,18.50
2019-04-26T06:35:24.308Z,16.90
2019-04-26T06:38:43.493Z,16.20
2019-04-26T06:41:23.576Z,15.90
2019-04-26T06:44:11.704Z,15.90
2019-04-26T06:46:57.728Z,15.80
2019-04-26T06:49:54.904Z,16.60
2019-04-26T06:52:26.434Z,17.80
2019-04-26T06:55:02.822Z,18.90
2019-04-26T06:57:38.468Z,18.90
2019-04-26T07:00:18.963Z,18.60
2019-04-26T07:03:19.482Z,17.90
2019-04-26T07:06:02.428Z,17.30
2019-04-26T07:08:40.142Z,16.80
2019-04-26T07:11:46.755Z,16.00
2019-04-26T07:14:39.468Z,16.00
2019-04-26T07:17:12.118Z,15.80
2019-04-26T07:20:16.194Z,15.90
2019-04-26T07:23:32.788Z,16.00
2019-04-26T07:26:22.463Z,16.30
2019-04-26T07:29:06.895Z,17.10
2019-04-26T07:31:53.902Z,18.00
2019-04-26T07:34:48.246Z,20.40
2019-04-26T07:37:45.396Z,21.70
2019-04-26T07:40:56.214Z,22.10
2019-04-26T07:43:50.549Z,22.30
2019-04-26T07:46:53.944Z,21.40
2019-04-26T07:49:31.224Z,20.60
2019-04-26T07:52:14.708Z,20.80
2019-04-26T07:54:49.416Z,21.60
2019-04-26T07:57:39.584Z,20.80
2019-04-26T08:00:20.548Z,19.90
2019-04-26T08:03:20.614Z,19.30
2019-04-26T08:05:55.015Z,19.20
2019-04-26T08:08:29.078Z,20.90
2019-04-26T08:11:06.610Z,21.90
2019-04-26T08:13:38.208Z,22.40
2019-04-26T08:16:19.194Z,22.20
2019-04-26T08:19:05.325Z,21.00
2019-04-26T08:21:42.596Z,19.60
2019-04-26T08:24:21.480Z,19.00
2019-04-26T08:26:53.218Z,18.60
2019-04-26T08:29:24.226Z,19.00
2019-04-26T08:31:57.856Z,19.10
2019-04-26T08:34:33.678Z,18.80
2019-04-26T08:37:19.762Z,19.00
2019-04-26T08:39:51.871Z,19.00
2019-04-26T08:42:23.821Z,18.80
2019-04-26T08:45:14.911Z,18.60
2019-04-26T08:47:53.544Z,19.00
2019-04-26T08:50:26.867Z,19.60
2019-04-26T08:52:57.968Z,19.80
2019-04-26T08:55:29.104Z,20.10
2019-04-26T08:58:00.639Z,20.50
2019-04-26T09:00:39.435Z,20.40
2019-04-26T09:03:21.715Z,19.70
2019-04-26T09:05:53.747Z,19.00
2019-04-26T09:08:25.553Z,18.70
2019-04-26T09:10:59.513Z,18.30
2019-04-26T09:13:31.615Z,18.10
2019-04-26T09:16:12.589Z,18.00
2019-04-26T09:18:43.902Z,18.10
2019-04-26T09:21:13.354Z,17.80
2019-04-26T09:24:00.279Z,17.80
2019-04-26T09:26:36.163Z,17.90
2019-04-26T09:29:12.984Z,17.60
2019-04-26T09:31:43.139Z,17.70
2019-04-26T09:34:16.227Z,17.80
2019-04-26T09:36:44.977Z,18.30
2019-04-26T09:39:17.433Z,18.10
2019-04-26T09:41:46.560Z,18.30
2019-04-26T09:44:29.511Z,18.10
2019-04-26T09:47:14.374Z,18.70
2019-04-26T09:50:00.993Z,19.10
2019-04-26T09:52:33.281Z,19.40
2019-04-26T09:55:03.840Z,18.90
2019-04-26T09:57:31.916Z,18.50
2019-04-26T10:00:00.471Z,18.10
2019-04-26T10:02:33.895Z,18.00
2019-04-26T10:05:00.693Z,17.60
2019-04-26T10:07:29.151Z,17.00
2019-04-26T10:10:00.851Z,16.80
2019-04-26T10:12:35.685Z,17.10
2019-04-26T10:15:09.580Z,17.60
2019-04-26T10:17:38.299Z,17.80
2019-04-26T10:20:08.120Z,18.00
2019-04-26T10:22:36.806Z,17.60
2019-04-26T10:25:09.940Z,17.00
2019-04-26T10:27:40.849Z,16.90
2019-04-26T10:30:09.774Z,16.80
2019-04-26T10:32:38.299Z,17.00
2019-04-26T10:35:07.009Z,16.80
2019-04-26T10:37:39.486Z,16.70
2019-04-26T10:40:07.268Z,16.70
2019-04-26T10:42:35.753Z,16.50
2019-04-26T10:45:14.376Z,16.40
2019-04-26T10:47:40.761Z,16.40
2019-04-26T10:50:10.164Z,16.10
2019-04-26T10:52:40.327Z,16.20
2019-04-26T10:55:17.520Z,15.90
2019-04-26T10:57:47.711Z,15.70
2019-04-26T11:00:24.957Z,15.50
2019-04-26T11:02:53.483Z,15.20
2019-04-26T11:05:21.936Z,15.20
2019-04-26T11:07:53.290Z,15.10
2019-04-26T11:10:20.879Z,15.20
2019-04-26T11:12:49.339Z,15.30
2019-04-26T11:15:17.865Z,15.40
2019-04-26T11:17:49.905Z,15.40
2019-04-26T11:20:16.583Z,15.30
2019-04-26T11:22:45.207Z,15.10
2019-04-26T11:25:13.754Z,15.10
2019-04-26T11:27:44.317Z,15.50
2019-04-26T11:30:20.315Z,15.70
2019-04-26T11:32:42.859Z,15.90
2019-04-26T11:35:11.483Z,16.30
2019-04-26T11:37:40.029Z,16.60
2019-04-26T11:40:10.221Z,16.80
2019-04-26T11:42:41.871Z,17.50
2019-04-26T11:45:14.594Z,17.10
2019-04-26T11:47:54.233Z,17.00
2019-04-26T11:50:16.187Z,17.00
2019-04-26T11:52:42.850Z,17.00
2019-04-26T11:55:11.738Z,16.70
2019-04-26T11:57:43.773Z,16.80
2019-04-26T12:00:14.156Z,16.70
2019-04-26T12:02:46.290Z,16.70
2019-04-26T12:05:19.254Z,16.70
2019-04-26T12:07:55.063Z,16.80
2019-04-26T12:10:23.702Z,16.80
2019-04-26T12:12:52.170Z,16.50
2019-04-26T12:15:30.141Z,16.40
2019-04-26T12:17:58.339Z,16.40
2019-04-26T12:20:22.462Z,16.00
2019-04-26T12:22:51.364Z,15.80
2019-04-26T12:25:19.824Z,16.10
2019-04-26T12:27:48.538Z,16.10
2019-04-26T12:30:17.455Z,16.30
2019-04-26T12:32:45.925Z,16.20
2019-04-26T12:35:14.613Z,15.90
2019-04-26T12:37:43.084Z,15.80
2019-04-26T12:40:12.366Z,15.70
2019-04-26T12:42:43.362Z,15.60
2019-04-26T12:45:29.265Z,15.50
2019-04-26T12:47:59.361Z,15.60
2019-04-26T12:50:29.505Z,15.40
2019-04-26T12:52:59.529Z,15.20
2019-04-26T12:55:28.000Z,15.10
2019-04-26T12:57:56.758Z,14.70
2019-04-26T13:00:26.918Z,14.40
2019-04-26T13:02:55.831Z,14.30
2019-04-26T13:05:24.730Z,14.20
2019-04-26T13:07:54.160Z,14.00
2019-04-26T13:10:44.835Z,13.80
2019-04-26T13:13:26.239Z,13.70
2019-04-26T13:16:12.938Z,13.50
2019-04-26T13:18:45.325Z,13.60
2019-04-26T13:21:11.602Z,13.60
2019-04-26T13:23:40.129Z,13.90
2019-04-26T13:26:08.592Z,14.00
2019-04-26T13:28:37.044Z,13.90
2019-04-26T13:31:05.582Z,13.70
2019-04-26T13:33:34.078Z,13.80
2019-04-26T13:36:03.290Z,13.70
2019-04-26T13:38:31.977Z,13.70
2019-04-26T13:41:04.521Z,13.90
2019-04-26T13:43:31.589Z,13.80
2019-04-26T13:46:10.410Z,13.70
2019-04-26T13:48:52.463Z,13.70
2019-04-26T13:51:22.642Z,13.90
2019-04-26T13:53:51.126Z,13.70
2019-04-26T13:56:19.634Z,13.50
2019-04-26T13:58:48.090Z,13.40
2019-04-26T14:01:18.729Z,13.30
2019-04-26T14:03:46.820Z,13.30
2019-04-26T14:06:15.414Z,13.30
2019-04-26T14:08:44.096Z,13.20
2019-04-26T14:11:12.652Z,13.30
2019-04-26T14:13:41.130Z,13.10
2019-04-26T14:16:09.717Z,12.80
2019-04-26T14:18:38.999Z,12.70
2019-04-26T14:21:08.359Z,12.80
2019-04-26T14:23:53.987Z,12.70
2019-04-26T14:26:35.313Z,12.70
2019-04-26T14:29:01.939Z,12.50
2019-04-26T14:31:30.401Z,12.60
2019-04-26T14:34:01.303Z,12.40
2019-04-26T14:36:29.090Z,12.40
2019-04-26T14:39:05.779Z,12.40
2019-04-26T14:41:27.863Z,12.40
2019-04-26T14:43:57.782Z,12.20
2019-04-26T14:46:26.392Z,12.20
2019-04-26T14:49:01.344Z,12.20
2019-04-26T14:51:25.036Z,12.00
2019-04-26T14:53:55.057Z,12.00
2019-04-26T14:56:28.822Z,12.10
2019-04-26T14:58:54.725Z,12.10
2019-04-26T15:01:42.397Z,12.10
2019-04-26T15:04:29.194Z,12.00
2019-04-26T15:06:59.672Z,12.00
2019-04-26T15:09:33.154Z,12.10
2019-04-26T15:12:01.333Z,12.00
2019-04-26T15:14:29.047Z,12.10
2019-04-26T15:16:57.645Z,12.20
2019-04-26T15:19:26.121Z,12.10
2019-04-26T15:21:54.649Z,12.00
2019-04-26T15:24:25.913Z,12.00
2019-04-26T15:26:54.520Z,12.10
2019-04-26T15:29:26.886Z,11.90
2019-04-26T15:31:53.611Z,11.90
2019-04-26T15:34:26.411Z,11.90
2019-04-26T15:36:54.301Z,11.90
2019-04-26T15:39:27.417Z,11.90
2019-04-26T15:41:57.591Z,11.80
2019-04-26T15:44:36.823Z,11.90
2019-04-26T15:47:09.815Z,11.90
2019-04-26T15:49:48.883Z,11.70
2019-04-26T15:52:17.391Z,11.70
2019-04-26T15:54:45.927Z,11.80
2019-04-26T15:57:14.465Z,11.90
2019-04-26T15:59:43.170Z,12.00
2019-04-26T16:02:12.452Z,12.00
2019-04-26T16:04:42.452Z,12.00
2019-04-26T16:07:16.686Z,11.90
2019-04-26T16:09:42.880Z,11.90
2019-04-26T16:12:13.256Z,11.90
2019-04-26T16:14:42.252Z,11.80
2019-04-26T16:17:12.353Z,11.90
2019-04-26T16:19:41.068Z,11.90
2019-04-26T16:22:09.543Z,11.90
2019-04-26T16:24:38.016Z,11.90
2019-04-26T16:27:06.624Z,11.80
2019-04-26T16:29:42.743Z,11.70
2019-04-26T16:32:29.445Z,11.70
2019-04-26T16:34:57.990Z,11.80
2019-04-26T16:37:26.520Z,11.80
2019-04-26T16:39:55.143Z,11.80
2019-04-26T16:42:25.861Z,11.70
2019-04-26T16:44:55.264Z,11.80
2019-04-26T16:47:23.997Z,11.70
2019-04-26T16:49:52.799Z,11.80
2019-04-26T16:52:23.747Z,11.70
2019-04-26T16:54:53.067Z,11.80
2019-04-26T16:57:24.246Z,11.90
2019-04-26T16:59:57.561Z,11.80
2019-04-26T17:02:26.540Z,11.80
2019-04-26T17:04:53.618Z,11.80
2019-04-26T17:07:27.056Z,11.80
2019-04-26T17:09:58.028Z,11.80
2019-04-26T17:12:22.616Z,11.80
2019-04-26T17:14:54.192Z,11.80
2019-04-26T17:17:22.661Z,11.90
2019-04-26T17:19:52.204Z,11.90
2019-04-26T17:22:23.232Z,11.80
2019-04-26T17:24:53.552Z,11.70
2019-04-26T17:27:23.747Z,11.60
2019-04-26T17:29:55.226Z,11.80
2019-04-26T17:32:23.926Z,11.70
2019-04-26T17:34:54.503Z,11.70
2019-04-26T17:37:26.561Z,11.60
2019-04-26T17:39:55.415Z,11.70
2019-04-26T17:42:25.290Z,11.70
2019-04-26T17:44:53.228Z,11.70
2019-04-26T17:47:21.778Z,11.60
2019-04-26T17:49:52.358Z,11.70
2019-04-26T17:52:20.717Z,11.60
2019-04-26T17:54:51.512Z,11.60
2019-04-26T17:57:32.104Z,11.70
2019-04-26T17:59:51.549Z,11.70
2019-04-26T18:02:38.754Z,11.60
2019-04-26T18:04:58.934Z,11.60
2019-04-26T18:07:40.208Z,11.60
2019-04-26T18:09:52.626Z,11.60
2019-04-26T18:12:21.634Z,11.40
2019-04-26T18:14:53.312Z,11.40
2019-04-26T18:17:24.800Z,11.40
2019-04-26T18:20:12.999Z,11.40
2019-04-26T18:22:48.982Z,11.30
2019-04-26T18:25:17.460Z,11.40
2019-04-26T18:27:45.932Z,11.30
2019-04-26T18:30:14.660Z,11.30
2019-04-26T18:32:47.690Z,11.30
2019-04-26T18:35:16.662Z,11.30
2019-04-26T18:37:43.720Z,11.30
2019-04-26T18:40:12.350Z,11.30
2019-04-26T18:42:43.396Z,11.30
2019-04-26T18:45:13.766Z,11.30
2019-04-26T18:47:43.749Z,11.30
2019-04-26T18:50:15.141Z,11.20
2019-04-26T18:52:48.475Z,11.20
2019-04-26T18:55:21.491Z,11.20
2019-04-26T18:57:55.178Z,11.10
2019-04-26T19:00:26.574Z,11.20
2019-04-26T19:02:55.418Z,11.20
2019-04-26T19:05:29.732Z,11.20
2019-04-26T19:07:55.756Z,11.20
2019-04-26T19:10:25.717Z,11.10
2019-04-26T19:13:00.163Z,11.20
2019-04-26T19:15:40.512Z,11.10
2019-04-26T19:18:23.628Z,11.20
2019-04-26T19:21:11.606Z,11.20
2019-04-26T19:23:48.286Z,11.20
2019-04-26T19:26:38.941Z,11.20
2019-04-26T19:29:16.390Z,11.10
2019-04-26T19:31:36.896Z,11.10
2019-04-26T19:34:05.569Z,11.10
2019-04-26T19:36:34.126Z,11.10
2019-04-26T19:39:03.674Z,11.10
2019-04-26T19:41:32.942Z,11.10
2019-04-26T19:44:01.822Z,11.20
2019-04-26T19:46:31.991Z,11.20
2019-04-26T19:49:07.945Z,11.10
2019-04-26T19:51:47.099Z,11.10
2019-04-26T19:54:35.668Z,11.10
2019-04-26T19:57:04.009Z,11.10
2019-04-26T19:59:34.280Z,11.20
2019-04-26T20:02:02.875Z,11.20
2019-04-26T20:04:34.144Z,11.20
2019-04-26T20:07:04.869Z,11.20
2019-04-26T20:09:33.462Z,11.20
2019-04-26T20:12:02.585Z,11.20
2019-04-26T20:14:44.727Z,11.10
2019-04-26T20:17:19.868Z,11.10
2019-04-26T20:19:47.841Z,11.10
2019-04-26T20:22:14.558Z,11.20
2019-04-26T20:24:43.560Z,11.20
2019-04-26T20:27:20.542Z,11.20
2019-04-26T20:29:47.865Z,11.10
2019-04-26T20:32:23.878Z,11.10
2019-04-26T20:35:05.745Z,11.10
2019-04-26T20:37:34.298Z,11.10
2019-04-26T20:40:18.479Z,11.10
2019-04-26T20:42:33.679Z,11.10
2019-04-26T20:45:04.364Z,11.10
2019-04-26T20:47:32.409Z,11.10
2019-04-26T20:50:02.894Z,11.10
2019-04-26T20:52:32.158Z,11.10
2019-04-26T20:55:00.780Z,11.10
2019-04-26T20:57:31.336Z,11.00
2019-04-26T21:00:03.195Z,11.00
2019-04-26T21:02:32.516Z,11.00
2019-04-26T21:05:02.027Z,11.00
2019-04-26T21:07:32.509Z,11.00
2019-04-26T21:10:00.991Z,11.00
2019-04-26T21:12:29.485Z,11.00
2019-04-26T21:14:58.095Z,11.00
2019-04-26T21:17:27.918Z,10.90
2019-04-26T21:19:58.526Z,10.90
2019-04-26T21:22:28.878Z,10.90
2019-04-26T21:25:14.169Z,10.80
2019-04-26T21:28:06.659Z,10.80
2019-04-26T21:30:51.967Z,10.80
2019-04-26T21:33:23.864Z,10.80
2019-04-26T21:36:10.564Z,10.80
2019-04-26T21:38:43.989Z,10.80
2019-04-26T21:41:24.565Z,10.70
2019-04-26T21:43:53.350Z,10.80
2019-04-26T21:46:22.948Z,10.80
2019-04-26T21:48:53.268Z,10.80
2019-04-26T21:51:23.003Z,10.80
2019-04-26T21:53:52.954Z,10.70
2019-04-26T21:56:23.344Z,10.70
2019-04-26T21:58:53.254Z,10.70
2019-04-26T22:01:23.480Z,10.70
2019-04-26T22:03:55.460Z,10.70
2019-04-26T22:06:26.800Z,10.70
2019-04-26T22:08:59.418Z,10.70
2019-04-26T22:11:29.486Z,10.70
2019-04-26T22:14:14.839Z,10.70
2019-04-26T22:16:43.937Z,10.60
2019-04-26T22:19:23.264Z,10.70
2019-04-26T22:22:08.554Z,10.70
2019-04-26T22:24:41.576Z,10.70
2019-04-26T22:27:10.035Z,10.70
2019-04-26T22:29:38.500Z,10.70
2019-04-26T22:32:07.112Z,10.80
2019-04-26T22:34:37.413Z,10.70
2019-04-26T22:37:11.202Z,10.80
2019-04-26T22:39:39.895Z,10.70
2019-04-26T22:42:06.621Z,10.70
2019-04-26T22:44:39.314Z,10.80
2019-04-26T22:47:15.412Z,10.80
2019-04-26T22:49:45.296Z,10.70
2019-04-26T22:52:16.321Z,10.70
2019-04-26T22:54:46.562Z,10.70
2019-04-26T22:57:16.200Z,10.70
2019-04-26T22:59:49.919Z,10.70
2019-04-26T23:02:18.583Z,10.70
2019-04-26T23:04:46.695Z,10.70
2019-04-26T23:07:18.420Z,10.70
2019-04-26T23:09:52.041Z,10.70
2019-04-26T23:12:34.522Z,10.70
2019-04-26T23:15:04.627Z,10.70
2019-04-26T23:17:37.682Z,10.70
2019-04-26T23:20:13.942Z,10.70
2019-04-26T23:22:42.730Z,10.70
2019-04-26T23:25:11.320Z,10.70
2019-04-26T23:27:39.772Z,10.60
2019-04-26T23:30:08.847Z,10.70
2019-04-26T23:32:37.308Z,10.70
2019-04-26T23:35:06.284Z,10.70
2019-04-26T23:37:34.741Z,10.60
2019-04-26T23:40:03.951Z,10.60
2019-04-26T23:42:33.106Z,10.60
2019-04-26T23:45:04.660Z,10.60
2019-04-26T23:47:37.816Z,10.60
2019-04-26T23:50:05.089Z,10.60
2019-04-26T23:52:33.587Z,10.50
2019-04-26T23:55:05.629Z,10.50
2019-04-26T23:57:36.049Z,10.40
